createdAt,value
2023-07-03T00:03:00.990Z,99956.84
2023-07-03T00:06:04.150Z,99964.09
2023-07-03T00:09:06.968Z,99969.47
2023-07-03T00:12:12.083Z,99965.84
2023-07-03T00:15:16.312Z,99963.34
2023-07-03T00:18:19.385Z,99963.09
2023-07-03T00:21:22.160Z,99969.69
2023-07-03T00:24:25.210Z,99965.88
2023-07-03T00:27:27.963Z,99972.06
2023-07-03T00:30:31.338Z,99977.47
2023-07-03T00:33:34.114Z,99975.72
2023-07-03T00:36:37.166Z,99973.84
2023-07-03T00:39:40.206Z,99967.78
2023-07-03T00:42:43.380Z,99981.62
2023-07-03T00:45:46.999Z,99975.84
2023-07-03T00:48:51.748Z,99976.66
2023-07-03T00:51:57.256Z,99989.34
2023-07-03T00:55:00.350Z,99984.81
2023-07-03T00:58:03.624Z,99982.44
2023-07-03T01:01:35.815Z,99971.75
2023-07-03T01:04:50.568Z,99975.03
2023-07-03T01:07:54.959Z,99982.41
2023-07-03T01:10:58.483Z,99981.00
2023-07-03T01:14:03.272Z,99980.44
2023-07-03T01:17:11.318Z,99973.81
2023-07-03T01:20:19.355Z,99969.72
2023-07-03T01:23:29.844Z,99972.00
2023-07-03T01:26:34.374Z,99975.66
2023-07-03T01:29:41.445Z,99964.47
2023-07-03T01:32:47.989Z,99956.47
2023-07-03T01:35:53.012Z,99956.13
2023-07-03T01:38:56.995Z,99948.50
2023-07-03T01:42:00.478Z,99952.09
2023-07-03T01:45:04.277Z,99943.03
2023-07-03T01:48:07.491Z,99954.31
2023-07-03T01:51:14.149Z,99956.00
2023-07-03T01:54:30.893Z,99956.81
2023-07-03T01:57:47.950Z,99954.81
2023-07-03T02:01:16.699Z,99958.00
2023-07-03T02:04:47.133Z,99957.94
2023-07-03T02:07:54.653Z,99958.00
2023-07-03T02:10:59.174Z,99966.84
2023-07-03T02:14:02.994Z,99969.13
2023-07-03T02:17:07.767Z,99958.78
2023-07-03T02:20:18.169Z,99974.22
2023-07-03T02:23:22.983Z,99975.47
2023-07-03T02:26:26.011Z,99972.22
2023-07-03T02:29:29.072Z,99976.25
2023-07-03T02:32:37.869Z,99970.66
2023-07-03T02:35:42.786Z,99974.03
2023-07-03T02:38:46.461Z,99970.19
2023-07-03T02:41:49.436Z,99972.91
2023-07-03T02:44:53.306Z,99969.38
2023-07-03T02:47:56.148Z,99979.28
2023-07-03T02:51:00.035Z,99982.88
2023-07-03T02:54:05.872Z,99980.50
2023-07-03T02:57:08.999Z,99982.12
2023-07-03T03:00:12.692Z,99977.56
2023-07-03T03:03:16.330Z,99983.41
2023-07-03T03:06:19.270Z,99985.47
2023-07-03T03:09:24.657Z,99982.25
2023-07-03T03:12:28.229Z,99989.88
2023-07-03T03:15:35.541Z,99977.22
2023-07-03T03:18:38.309Z,99980.78
2023-07-03T03:21:41.480Z,99970.41
2023-07-03T03:24:44.998Z,99975.59
2023-07-03T03:27:48.104Z,99978.81
2023-07-03T03:30:51.098Z,99981.59
2023-07-03T03:33:54.270Z,99983.19
2023-07-03T03:36:57.735Z,99987.97
2023-07-03T03:40:01.058Z,99993.56
2023-07-03T03:43:04.164Z,100002.31
2023-07-03T03:46:07.299Z,100000.31
2023-07-03T03:49:11.973Z,99999.50
2023-07-03T03:52:15.134Z,100005.00
2023-07-03T03:55:18.124Z,100009.78
2023-07-03T03:58:24.527Z,100011.81
2023-07-03T04:01:27.646Z,100003.81
2023-07-03T04:04:30.984Z,100008.56
2023-07-03T04:07:33.849Z,100010.16
2023-07-03T04:10:37.592Z,100009.72
2023-07-03T04:13:40.434Z,100014.75
2023-07-03T04:16:45.026Z,100013.47
2023-07-03T04:19:47.811Z,100006.66
2023-07-03T04:22:50.809Z,100020.78
2023-07-03T04:25:54.366Z,100022.25
2023-07-03T04:28:57.644Z,100021.28
2023-07-03T04:32:00.589Z,100028.81
2023-07-03T04:35:04.112Z,100021.22
2023-07-03T04:38:07.264Z,100024.00
2023-07-03T04:41:10.438Z,100036.38
2023-07-03T04:44:13.758Z,100038.72
2023-07-03T04:47:18.294Z,100033.78
2023-07-03T04:50:26.552Z,100040.06
2023-07-03T04:53:29.845Z,100042.47
2023-07-03T04:56:35.114Z,100047.84
2023-07-03T04:59:39.093Z,100052.44
2023-07-03T05:02:43.087Z,100047.84
2023-07-03T05:05:46.249Z,100055.19
2023-07-03T05:08:49.117Z,100058.19
2023-07-03T05:11:53.397Z,100061.09
2023-07-03T05:14:58.330Z,100066.56
2023-07-03T05:18:01.685Z,100063.87
2023-07-03T05:21:07.501Z,100075.72
2023-07-03T05:24:10.691Z,100082.16
2023-07-03T05:27:13.404Z,100083.19
2023-07-03T05:30:16.702Z,100084.37
2023-07-03T05:33:19.475Z,100089.91
2023-07-03T05:36:22.794Z,100096.66
2023-07-03T05:39:26.290Z,100097.41
2023-07-03T05:42:29.427Z,100096.41
2023-07-03T05:45:32.164Z,100095.25
2023-07-03T05:48:36.723Z,100085.19
2023-07-03T05:51:39.613Z,100082.81
2023-07-03T05:54:42.645Z,100080.56
2023-07-03T05:57:45.616Z,100080.69
2023-07-03T06:00:49.808Z,100083.00
2023-07-03T06:03:53.061Z,100080.09
2023-07-03T06:06:57.186Z,100074.91
2023-07-03T06:10:00.394Z,100079.16
2023-07-03T06:13:03.471Z,100080.34
2023-07-03T06:16:06.758Z,100084.56
2023-07-03T06:19:10.549Z,100089.09
2023-07-03T06:22:13.575Z,100088.69
2023-07-03T06:25:16.657Z,100095.53
2023-07-03T06:28:20.278Z,100088.09
2023-07-03T06:31:23.640Z,100085.66
2023-07-03T06:34:27.602Z,100087.03
2023-07-03T06:37:30.327Z,100091.69
2023-07-03T06:40:33.606Z,100096.38
2023-07-03T06:43:36.963Z,100096.91
2023-07-03T06:46:40.625Z,100098.56
2023-07-03T06:49:43.629Z,100095.00
2023-07-03T06:52:48.713Z,100089.81
2023-07-03T06:55:59.070Z,100094.41
2023-07-03T06:59:02.461Z,100092.66
2023-07-03T07:02:08.655Z,100101.84
2023-07-03T07:05:12.592Z,100102.00
2023-07-03T07:08:18.064Z,100102.31
2023-07-03T07:11:39.495Z,100098.91
2023-07-03T07:14:42.255Z,100084.66
2023-07-03T07:17:51.955Z,100089.31
2023-07-03T07:20:56.207Z,100084.09
2023-07-03T07:24:12.712Z,100089.13
2023-07-03T07:27:15.641Z,100088.28
2023-07-03T07:30:18.912Z,100085.09
2023-07-03T07:33:23.960Z,100082.62
2023-07-03T07:36:27.918Z,100095.84
2023-07-03T07:39:32.013Z,100089.22
2023-07-03T07:42:35.773Z,100084.00
2023-07-03T07:45:38.890Z,100083.38
2023-07-03T07:48:42.305Z,100072.97
2023-07-03T07:51:45.065Z,100073.72
2023-07-03T07:54:48.611Z,100076.28
2023-07-03T07:57:51.673Z,100074.00
2023-07-03T08:00:56.131Z,100077.75
2023-07-03T08:03:59.235Z,100085.84
2023-07-03T08:07:02.102Z,100076.41
2023-07-03T08:10:06.004Z,100090.69
2023-07-03T08:13:09.299Z,100091.31
2023-07-03T08:16:13.050Z,100085.38
2023-07-03T08:19:16.106Z,100072.41
2023-07-03T08:22:19.393Z,100078.25
2023-07-03T08:25:22.845Z,100067.69
2023-07-03T08:28:26.245Z,100068.75
2023-07-03T08:31:29.492Z,100065.47
2023-07-03T08:34:32.831Z,100058.47
2023-07-03T08:37:35.681Z,100064.72
2023-07-03T08:40:39.050Z,100075.91
2023-07-03T08:43:48.592Z,100073.78
2023-07-03T08:47:06.515Z,100078.19
2023-07-03T08:50:28.122Z,100073.53
2023-07-03T08:53:41.809Z,100088.16
2023-07-03T08:56:44.755Z,100079.50
2023-07-03T08:59:49.367Z,100075.03
2023-07-03T09:03:48.412Z,100069.66
2023-07-03T09:07:00.777Z,100073.94
2023-07-03T09:10:13.148Z,100081.13
2023-07-03T09:13:30.791Z,100074.56
2023-07-03T09:16:34.054Z,100065.59
2023-07-03T09:19:39.594Z,100074.69
2023-07-03T09:22:50.754Z,100061.84
2023-07-03T09:26:05.177Z,100071.31
2023-07-03T09:29:08.542Z,100065.91
2023-07-03T09:32:25.767Z,100057.06
2023-07-03T09:35:42.368Z,100062.47
2023-07-03T09:38:45.474Z,100066.69
2023-07-03T09:41:48.456Z,100068.16
2023-07-03T09:44:52.091Z,100069.81
2023-07-03T09:47:59.734Z,100078.94
2023-07-03T09:51:08.760Z,100072.31
2023-07-03T09:54:24.806Z,100072.94
2023-07-03T09:57:28.923Z,100081.28
2023-07-03T10:00:31.880Z,100074.03
2023-07-03T10:03:36.920Z,100078.13
2023-07-03T10:06:41.235Z,100068.69
2023-07-03T10:13:05.863Z,100075.28
2023-07-03T10:16:10.485Z,100075.78
2023-07-03T10:19:15.133Z,100056.72
2023-07-03T10:22:20.140Z,100065.09
2023-07-03T10:25:30.725Z,100054.34
2023-07-03T10:28:40.086Z,100057.00
2023-07-03T10:31:51.138Z,100066.69
2023-07-03T10:35:11.065Z,100067.22
2023-07-03T10:38:56.529Z,100072.69
2023-07-03T10:42:05.437Z,100066.69
2023-07-03T10:45:15.671Z,100065.88
2023-07-03T10:48:28.066Z,100067.00
2023-07-03T10:51:54.465Z,100070.16
2023-07-03T10:55:10.029Z,100062.25
2023-07-03T10:58:32.714Z,100061.72
2023-07-03T11:01:51.903Z,100060.13
2023-07-03T11:05:21.504Z,100066.56
2023-07-03T11:09:04.898Z,100065.53
2023-07-03T11:12:15.370Z,100064.94
2023-07-03T11:15:35.228Z,100067.87
2023-07-03T11:25:33.374Z,100074.81
2023-07-03T11:28:39.331Z,100071.06
2023-07-03T11:31:44.717Z,100069.12
2023-07-03T11:44:19.218Z,100076.38
2023-07-03T11:47:29.415Z,100079.31
2023-07-03T11:50:35.411Z,100075.84
2023-07-03T11:53:49.082Z,100071.25
2023-07-03T11:56:57.575Z,100062.91
2023-07-03T12:00:24.161Z,100065.75
2023-07-03T12:04:04.222Z,100059.81
2023-07-03T12:07:07.371Z,100059.69
2023-07-03T12:10:30.814Z,100059.34
2023-07-03T12:13:43.008Z,100056.97
2023-07-03T12:16:49.125Z,100058.97
2023-07-03T12:19:56.594Z,100065.41
2023-07-03T12:23:00.873Z,100068.53
2023-07-03T12:26:17.012Z,100067.19
2023-07-03T12:29:23.249Z,100069.38
2023-07-03T12:32:35.824Z,100068.09
2023-07-03T12:35:44.458Z,100066.12
2023-07-03T12:38:47.598Z,100059.97
2023-07-03T12:41:50.891Z,100063.50
2023-07-03T12:44:54.150Z,100058.16
2023-07-03T12:48:04.270Z,100066.47
2023-07-03T12:51:07.842Z,100063.63
2023-07-03T12:54:13.693Z,100064.16
2023-07-03T12:57:16.833Z,100066.38
2023-07-03T13:00:26.572Z,100060.28
2023-07-03T13:03:29.629Z,100057.09
2023-07-03T13:06:34.724Z,100044.28
2023-07-03T13:09:44.246Z,100051.41
2023-07-03T13:13:07.459Z,100042.44
2023-07-03T13:16:16.215Z,100036.13
2023-07-03T13:19:49.774Z,100032.19
2023-07-03T13:22:56.393Z,100036.09
2023-07-03T13:26:01.558Z,100025.62
2023-07-03T13:29:07.030Z,100026.63
2023-07-03T13:32:18.852Z,100027.09
2023-07-03T13:35:31.287Z,100023.81
2023-07-03T13:38:34.376Z,100024.72
2023-07-03T13:41:39.133Z,100018.53
2023-07-03T13:44:42.191Z,100023.53
2023-07-03T13:47:45.164Z,100024.81
2023-07-03T13:50:50.895Z,100022.59
2023-07-03T13:54:03.188Z,100020.78
2023-07-03T13:57:14.127Z,100024.78
2023-07-03T14:00:17.973Z,100035.94
2023-07-03T14:03:21.888Z,100026.28
2023-07-03T14:06:25.349Z,100029.88
2023-07-03T14:09:28.828Z,100022.19
2023-07-03T14:12:31.552Z,100024.53
2023-07-03T14:15:36.981Z,100022.91
2023-07-03T14:18:40.273Z,100024.78
2023-07-03T14:21:44.104Z,100030.31
2023-07-03T14:24:46.906Z,100027.53
2023-07-03T14:27:50.873Z,100027.44
2023-07-03T14:30:54.315Z,100030.66
2023-07-03T14:33:57.514Z,100028.59
2023-07-03T14:37:04.656Z,100031.50
2023-07-03T14:40:08.458Z,100037.37
2023-07-03T14:43:11.513Z,100038.16
2023-07-03T14:46:14.717Z,100027.16
2023-07-03T14:49:17.610Z,100027.37
2023-07-03T14:52:21.358Z,100024.06
2023-07-03T14:55:24.148Z,100021.91
2023-07-03T14:58:27.486Z,100025.00
2023-07-03T15:01:30.483Z,100021.94
2023-07-03T15:04:34.155Z,100037.25
2023-07-03T15:07:37.388Z,100024.97
2023-07-03T15:10:40.528Z,100015.25
2023-07-03T15:13:43.751Z,100015.62
2023-07-03T15:16:47.241Z,100015.06
2023-07-03T15:19:50.092Z,100009.25
2023-07-03T15:22:54.042Z,100005.53
2023-07-03T15:26:07.319Z,100009.00
2023-07-03T15:29:10.358Z,99999.63
2023-07-03T15:32:13.686Z,100002.28
2023-07-03T15:35:16.880Z,100004.34
2023-07-03T15:38:20.033Z,100009.25
2023-07-03T15:41:23.037Z,100015.56
2023-07-03T15:44:25.786Z,100009.72
2023-07-03T15:47:29.096Z,100016.44
2023-07-03T15:50:31.902Z,100010.94
2023-07-03T15:53:36.140Z,100003.78
2023-07-03T15:56:39.530Z,100007.22
2023-07-03T15:59:43.746Z,100014.63
2023-07-03T16:02:46.941Z,100008.66
2023-07-03T16:06:04.908Z,99998.63
2023-07-03T16:09:08.188Z,100003.25
2023-07-03T16:12:11.233Z,100001.66
2023-07-03T16:15:14.127Z,100003.03
2023-07-03T16:18:17.226Z,100009.78
2023-07-03T16:21:22.578Z,100007.06
2023-07-03T16:24:26.820Z,100000.16
2023-07-03T16:27:29.572Z,99997.66
2023-07-03T16:30:32.803Z,100000.69
2023-07-03T16:33:38.930Z,100008.88
2023-07-03T16:36:42.142Z,100003.75
2023-07-03T16:39:45.371Z,100007.69
2023-07-03T16:42:48.762Z,100000.44
2023-07-03T16:45:54.202Z,100003.75
2023-07-03T16:48:59.381Z,100002.19
2023-07-03T16:52:02.509Z,99995.56
2023-07-03T16:55:06.085Z,100000.16
2023-07-03T16:58:09.426Z,99998.63
2023-07-03T17:01:16.529Z,99999.81
2023-07-03T17:04:19.582Z,100002.41
2023-07-03T17:07:23.923Z,100005.09
2023-07-03T17:10:27.339Z,100004.50
2023-07-03T17:13:32.183Z,100006.56
2023-07-03T17:16:36.519Z,100003.75
2023-07-03T17:19:39.707Z,100012.88
2023-07-03T17:22:42.842Z,100007.75
2023-07-03T17:25:48.861Z,100009.97
2023-07-03T17:28:52.375Z,100008.59
2023-07-03T17:31:56.268Z,100015.69
2023-07-03T17:34:59.959Z,100021.06
2023-07-03T17:38:04.504Z,100016.34
2023-07-03T17:41:08.567Z,100028.34
2023-07-03T17:44:13.459Z,100033.72
2023-07-03T17:47:17.215Z,100032.44
2023-07-03T17:50:20.649Z,100033.41
2023-07-03T17:53:24.798Z,100036.56
2023-07-03T17:56:29.442Z,100031.97
2023-07-03T17:59:32.908Z,100030.41
2023-07-03T18:02:36.484Z,100038.75
2023-07-03T18:05:41.233Z,100041.94
2023-07-03T18:08:44.867Z,100040.34
2023-07-03T18:11:49.631Z,100049.81
2023-07-03T18:14:53.984Z,100047.28
2023-07-03T18:17:58.606Z,100035.66
2023-07-03T18:21:02.151Z,100034.38
2023-07-03T18:24:06.854Z,100027.47
2023-07-03T18:27:10.709Z,100033.72
2023-07-03T18:30:15.966Z,100036.56
2023-07-03T18:33:19.775Z,100030.25
2023-07-03T18:36:24.712Z,100035.28
2023-07-03T18:39:28.447Z,100031.34
2023-07-03T18:42:32.656Z,100048.16
2023-07-03T18:45:36.134Z,100045.78
2023-07-03T18:48:40.676Z,100042.72
2023-07-03T18:51:43.808Z,100042.69
2023-07-03T18:54:47.053Z,100038.25
2023-07-03T18:57:50.600Z,100041.22
2023-07-03T19:00:53.659Z,100047.19
2023-07-03T19:03:58.616Z,100054.84
2023-07-03T19:07:02.524Z,100052.47
2023-07-03T19:10:17.544Z,100070.97
2023-07-03T19:13:23.031Z,100067.97
2023-07-03T19:16:26.205Z,100075.94
2023-07-03T19:19:30.059Z,100070.56
2023-07-03T19:22:34.120Z,100064.31
2023-07-03T19:25:38.243Z,100076.69
2023-07-03T19:28:45.442Z,100070.66
2023-07-03T19:31:52.008Z,100078.03
2023-07-03T19:34:55.019Z,100081.31
2023-07-03T19:38:00.662Z,100087.34
2023-07-03T19:41:05.433Z,100072.75
2023-07-03T19:44:10.209Z,100076.78
2023-07-03T19:47:13.935Z,100080.19
2023-07-03T19:50:18.757Z,100088.22
2023-07-03T19:53:22.282Z,100096.84
2023-07-03T19:56:26.366Z,100093.28
2023-07-03T19:59:30.056Z,100091.97
2023-07-03T20:02:35.858Z,100096.16
2023-07-03T20:05:43.088Z,100101.19
2023-07-03T20:08:50.651Z,100101.59
2023-07-03T20:11:55.233Z,100095.34
2023-07-03T20:14:59.494Z,100091.84
2023-07-03T20:18:03.965Z,100098.41
2023-07-03T20:21:11.970Z,100083.94
2023-07-03T20:24:16.798Z,100092.84
2023-07-03T20:27:20.009Z,100087.75
2023-07-03T20:30:23.928Z,100083.41
2023-07-03T20:33:27.029Z,100093.41
2023-07-03T20:36:31.160Z,100082.81
2023-07-03T20:39:36.092Z,100077.87
2023-07-03T20:42:39.445Z,100094.13
2023-07-03T20:45:43.068Z,100086.78
2023-07-03T20:48:55.561Z,100092.38
2023-07-03T20:52:00.485Z,100085.06
2023-07-03T20:55:13.504Z,100094.63
2023-07-03T20:58:16.494Z,100090.00
2023-07-03T21:01:24.112Z,100093.56
2023-07-03T21:04:26.949Z,100093.94
2023-07-03T21:07:30.326Z,100097.78
2023-07-03T21:10:33.191Z,100102.22
2023-07-03T21:13:38.909Z,100085.78
2023-07-03T21:16:42.443Z,100097.59
2023-07-03T21:19:45.672Z,100090.53
2023-07-03T21:22:48.893Z,100091.19
2023-07-03T21:25:52.336Z,100094.69
2023-07-03T21:28:55.815Z,100093.91
2023-07-03T21:31:59.119Z,100094.75
2023-07-03T21:35:02.161Z,100098.88
2023-07-03T21:38:05.332Z,100104.34
2023-07-03T21:41:10.161Z,100107.84
2023-07-03T21:44:16.923Z,100116.06
2023-07-03T21:47:19.878Z,100113.78
2023-07-03T21:50:23.723Z,100118.72
2023-07-03T21:53:27.524Z,100117.44
2023-07-03T21:56:32.028Z,100114.59
2023-07-03T21:59:34.879Z,100120.84
2023-07-03T22:02:38.145Z,100134.19
2023-07-03T22:05:41.337Z,100131.00
2023-07-03T22:08:44.193Z,100125.97
2023-07-03T22:11:48.336Z,100119.50
2023-07-03T22:14:51.399Z,100124.72
2023-07-03T22:17:54.597Z,100121.16
2023-07-03T22:20:57.368Z,100119.41
2023-07-03T22:24:00.945Z,100130.16
2023-07-03T22:27:05.441Z,100135.31
2023-07-03T22:30:09.233Z,100129.34
2023-07-03T22:33:11.943Z,100122.00
2023-07-03T22:36:15.437Z,100117.88
2023-07-03T22:39:18.420Z,100116.03
2023-07-03T22:42:21.641Z,100117.97
2023-07-03T22:45:24.615Z,100108.00
2023-07-03T22:48:27.747Z,100104.50
2023-07-03T22:51:32.253Z,100101.37
2023-07-03T22:54:35.710Z,100102.94
2023-07-03T22:57:38.569Z,100103.50
2023-07-03T23:00:41.723Z,100108.72
2023-07-03T23:03:44.769Z,100107.12
2023-07-03T23:06:48.576Z,100105.59
2023-07-03T23:09:51.829Z,100108.84
2023-07-03T23:12:54.927Z,100110.66
2023-07-03T23:16:05.915Z,100108.97
2023-07-03T23:19:09.767Z,100103.97
2023-07-03T23:22:12.550Z,100096.06
2023-07-03T23:25:15.747Z,100098.13
2023-07-03T23:28:18.784Z,100106.41
2023-07-03T23:31:21.940Z,100101.06
2023-07-03T23:34:24.954Z,100098.25
2023-07-03T23:37:28.026Z,100101.22
2023-07-03T23:40:32.210Z,100095.69
2023-07-03T23:43:36.549Z,100086.19
2023-07-03T23:46:39.443Z,100092.97
2023-07-03T23:49:43.122Z,100085.38
2023-07-03T23:52:47.399Z,100083.94
2023-07-03T23:55:51.845Z,100083.12
2023-07-03T23:58:54.647Z,100083.47
